sensor_id;sensor_type;location;lat;lon;timestamp;P1;durP1;ratioP1;P2;durP2;ratioP2
8281;SDS011;25606;42.686;23.136;2022-11-11T00:00:20;24.87;;;16.70;;
8281;SDS011;25606;42.686;23.136;2022-11-11T00:02:48;27.23;;;17.07;;
8281;SDS011;25606;42.686;23.136;2022-11-11T00:05:15;27.07;;;17.00;;
8281;SDS011;25606;42.686;23.136;2022-11-11T00:07:42;23.37;;;16.27;;
8281;SDS011;25606;42.686;23.136;2022-11-11T00:10:10;26.80;;;17.40;;
8281;SDS011;25606;42.686;23.136;2022-11-11T00:12:38;27.10;;;17.40;;
8281;SDS011;25606;42.686;23.136;2022-11-11T00:15:06;25.27;;;18.17;;
8281;SDS011;25606;42.686;23.136;2022-11-11T00:17:33;26.90;;;17.97;;
8281;SDS011;25606;42.686;23.136;2022-11-11T00:20:18;25.00;;;17.90;;
8281;SDS011;25606;42.686;23.136;2022-11-11T00:23:03;23.27;;;17.07;;
8281;SDS011;25606;42.686;23.136;2022-11-11T00:25:50;22.80;;;16.73;;
8281;SDS011;25606;42.686;23.136;2022-11-11T00:28:19;24.97;;;17.60;;
8281;SDS011;25606;42.686;23.136;2022-11-11T00:30:46;24.40;;;16.87;;
8281;SDS011;25606;42.686;23.136;2022-11-11T00:33:13;27.17;;;17.53;;
8281;SDS011;25606;42.686;23.136;2022-11-11T00:35:41;30.20;;;18.93;;
8281;SDS011;25606;42.686;23.136;2022-11-11T00:38:21;21.67;;;16.53;;
8281;SDS011;25606;42.686;23.136;2022-11-11T00:41:06;29.43;;;18.93;;
8281;SDS011;25606;42.686;23.136;2022-11-11T00:43:35;23.47;;;16.67;;
8281;SDS011;25606;42.686;23.136;2022-11-11T00:46:02;26.87;;;18.23;;
8281;SDS011;25606;42.686;23.136;2022-11-11T00:48:47;28.83;;;18.67;;
8281;SDS011;25606;42.686;23.136;2022-11-11T00:51:32;28.90;;;18.97;;
8281;SDS011;25606;42.686;23.136;2022-11-11T00:53:59;27.57;;;18.17;;
8281;SDS011;25606;42.686;23.136;2022-11-11T00:56:26;31.30;;;19.33;;
8281;SDS011;25606;42.686;23.136;2022-11-11T00:58:55;28.17;;;18.33;;
8281;SDS011;25606;42.686;23.136;2022-11-11T01:01:23;30.97;;;20.43;;
8281;SDS011;25606;42.686;23.136;2022-11-11T01:03:50;25.60;;;18.00;;
8281;SDS011;25606;42.686;23.136;2022-11-11T01:06:17;26.43;;;18.93;;
8281;SDS011;25606;42.686;23.136;2022-11-11T01:08:44;29.67;;;19.30;;
8281;SDS011;25606;42.686;23.136;2022-11-11T01:11:12;29.00;;;18.70;;
8281;SDS011;25606;42.686;23.136;2022-11-11T01:13:40;27.60;;;19.77;;
8281;SDS011;25606;42.686;23.136;2022-11-11T01:16:10;31.80;;;20.70;;
8281;SDS011;25606;42.686;23.136;2022-11-11T01:18:38;32.23;;;20.73;;
8281;SDS011;25606;42.686;23.136;2022-11-11T01:21:06;32.90;;;21.37;;
8281;SDS011;25606;42.686;23.136;2022-11-11T01:23:35;31.57;;;21.33;;
8281;SDS011;25606;42.686;23.136;2022-11-11T01:26:03;28.57;;;19.97;;
8281;SDS011;25606;42.686;23.136;2022-11-11T01:28:31;29.23;;;19.97;;
8281;SDS011;25606;42.686;23.136;2022-11-11T01:31:02;30.33;;;20.73;;
8281;SDS011;25606;42.686;23.136;2022-11-11T01:33:30;28.80;;;19.90;;
8281;SDS011;25606;42.686;23.136;2022-11-11T01:36:02;31.53;;;21.33;;
8281;SDS011;25606;42.686;23.136;2022-11-11T01:38:29;29.67;;;19.47;;
8281;SDS011;25606;42.686;23.136;2022-11-11T01:40:56;28.90;;;19.70;;
8281;SDS011;25606;42.686;23.136;2022-11-11T01:43:24;30.57;;;20.73;;
8281;SDS011;25606;42.686;23.136;2022-11-11T01:45:53;32.70;;;21.03;;
8281;SDS011;25606;42.686;23.136;2022-11-11T01:48:24;29.20;;;20.57;;
8281;SDS011;25606;42.686;23.136;2022-11-11T01:51:11;30.87;;;20.23;;
8281;SDS011;25606;42.686;23.136;2022-11-11T01:53:41;29.73;;;21.03;;
8281;SDS011;25606;42.686;23.136;2022-11-11T01:56:08;28.50;;;20.70;;
8281;SDS011;25606;42.686;23.136;2022-11-11T01:58:36;29.20;;;20.30;;
8281;SDS011;25606;42.686;23.136;2022-11-11T02:01:04;31.23;;;21.17;;
8281;SDS011;25606;42.686;23.136;2022-11-11T02:03:32;28.67;;;20.77;;
8281;SDS011;25606;42.686;23.136;2022-11-11T02:06:01;30.23;;;21.00;;
8281;SDS011;25606;42.686;23.136;2022-11-11T02:08:30;32.33;;;21.60;;
8281;SDS011;25606;42.686;23.136;2022-11-11T02:10:59;31.83;;;20.93;;
8281;SDS011;25606;42.686;23.136;2022-11-11T02:13:28;31.10;;;22.07;;
8281;SDS011;25606;42.686;23.136;2022-11-11T02:16:13;35.03;;;22.53;;
8281;SDS011;25606;42.686;23.136;2022-11-11T02:18:40;34.10;;;23.90;;
8281;SDS011;25606;42.686;23.136;2022-11-11T02:21:08;35.13;;;22.73;;
8281;SDS011;25606;42.686;23.136;2022-11-11T02:23:39;34.60;;;24.20;;
8281;SDS011;25606;42.686;23.136;2022-11-11T02:26:10;38.10;;;22.57;;
8281;SDS011;25606;42.686;23.136;2022-11-11T02:28:40;36.00;;;22.83;;
8281;SDS011;25606;42.686;23.136;2022-11-11T02:31:07;33.70;;;22.23;;
8281;SDS011;25606;42.686;23.136;2022-11-11T02:33:34;31.93;;;20.90;;
8281;SDS011;25606;42.686;23.136;2022-11-11T02:36:02;32.83;;;21.57;;
8281;SDS011;25606;42.686;23.136;2022-11-11T02:38:30;31.50;;;21.37;;
8281;SDS011;25606;42.686;23.136;2022-11-11T02:40:57;32.53;;;20.70;;
8281;SDS011;25606;42.686;23.136;2022-11-11T02:43:43;29.97;;;20.53;;
8281;SDS011;25606;42.686;23.136;2022-11-11T02:46:10;30.43;;;21.27;;
8281;SDS011;25606;42.686;23.136;2022-11-11T02:48:38;28.83;;;19.77;;
8281;SDS011;25606;42.686;23.136;2022-11-11T02:51:05;26.73;;;19.03;;
8281;SDS011;25606;42.686;23.136;2022-11-11T02:53:32;31.33;;;20.97;;
8281;SDS011;25606;42.686;23.136;2022-11-11T02:56:00;27.00;;;18.93;;
8281;SDS011;25606;42.686;23.136;2022-11-11T02:58:27;26.77;;;18.90;;
8281;SDS011;25606;42.686;23.136;2022-11-11T03:00:56;31.13;;;20.20;;
8281;SDS011;25606;42.686;23.136;2022-11-11T03:03:23;25.97;;;19.33;;
8281;SDS011;25606;42.686;23.136;2022-11-11T03:05:50;28.10;;;20.50;;
8281;SDS011;25606;42.686;23.136;2022-11-11T03:08:17;26.17;;;19.13;;
8281;SDS011;25606;42.686;23.136;2022-11-11T03:10:45;27.60;;;19.83;;
8281;SDS011;25606;42.686;23.136;2022-11-11T03:13:12;23.33;;;18.40;;
8281;SDS011;25606;42.686;23.136;2022-11-11T03:15:40;26.63;;;18.67;;
8281;SDS011;25606;42.686;23.136;2022-11-11T03:18:09;26.67;;;19.60;;
8281;SDS011;25606;42.686;23.136;2022-11-11T03:20:36;25.43;;;19.20;;
8281;SDS011;25606;42.686;23.136;2022-11-11T03:23:35;25.20;;;18.37;;
8281;SDS011;25606;42.686;23.136;2022-11-11T03:26:02;28.10;;;19.97;;
8281;SDS011;25606;42.686;23.136;2022-11-11T03:28:29;26.87;;;19.73;;
8281;SDS011;25606;42.686;23.136;2022-11-11T03:30:57;30.27;;;19.90;;
8281;SDS011;25606;42.686;23.136;2022-11-11T03:33:25;24.03;;;18.57;;
8281;SDS011;25606;42.686;23.136;2022-11-11T03:35:52;27.77;;;19.80;;
8281;SDS011;25606;42.686;23.136;2022-11-11T03:38:20;28.77;;;20.23;;
8281;SDS011;25606;42.686;23.136;2022-11-11T03:40:50;28.97;;;21.00;;
8281;SDS011;25606;42.686;23.136;2022-11-11T03:43:18;25.37;;;20.03;;
8281;SDS011;25606;42.686;23.136;2022-11-11T03:45:45;22.63;;;17.93;;
8281;SDS011;25606;42.686;23.136;2022-11-11T03:48:13;26.17;;;18.50;;
8281;SDS011;25606;42.686;23.136;2022-11-11T03:50:42;26.37;;;18.47;;
8281;SDS011;25606;42.686;23.136;2022-11-11T03:53:11;26.63;;;19.47;;
8281;SDS011;25606;42.686;23.136;2022-11-11T03:55:38;24.57;;;19.67;;
8281;SDS011;25606;42.686;23.136;2022-11-11T03:58:06;23.63;;;17.67;;
8281;SDS011;25606;42.686;23.136;2022-11-11T04:00:33;22.50;;;17.17;;
8281;SDS011;25606;42.686;23.136;2022-11-11T04:03:01;23.00;;;16.80;;
8281;SDS011;25606;42.686;23.136;2022-11-11T04:05:47;23.13;;;17.93;;
8281;SDS011;25606;42.686;23.136;2022-11-11T04:08:32;23.40;;;17.30;;
8281;SDS011;25606;42.686;23.136;2022-11-11T04:11:18;21.50;;;16.23;;
8281;SDS011;25606;42.686;23.136;2022-11-11T04:13:46;21.90;;;16.93;;
8281;SDS011;25606;42.686;23.136;2022-11-11T04:16:32;22.63;;;16.83;;
8281;SDS011;25606;42.686;23.136;2022-11-11T04:18:59;21.67;;;16.53;;
8281;SDS011;25606;42.686;23.136;2022-11-11T04:21:45;20.83;;;15.73;;
8281;SDS011;25606;42.686;23.136;2022-11-11T04:24:14;18.57;;;15.10;;
8281;SDS011;25606;42.686;23.136;2022-11-11T04:27:00;22.47;;;16.07;;
8281;SDS011;25606;42.686;23.136;2022-11-11T04:29:28;26.00;;;17.03;;
8281;SDS011;25606;42.686;23.136;2022-11-11T04:31:55;20.63;;;16.70;;
8281;SDS011;25606;42.686;23.136;2022-11-11T04:34:40;22.80;;;17.00;;
8281;SDS011;25606;42.686;23.136;2022-11-11T04:37:09;23.03;;;17.90;;
8281;SDS011;25606;42.686;23.136;2022-11-11T04:39:36;24.30;;;16.80;;
8281;SDS011;25606;42.686;23.136;2022-11-11T04:42:21;22.30;;;16.10;;
8281;SDS011;25606;42.686;23.136;2022-11-11T04:44:49;22.80;;;17.30;;
8281;SDS011;25606;42.686;23.136;2022-11-11T04:47:33;23.90;;;18.00;;
8281;SDS011;25606;42.686;23.136;2022-11-11T04:50:01;22.03;;;16.67;;
8281;SDS011;25606;42.686;23.136;2022-11-11T04:52:30;23.27;;;16.83;;
8281;SDS011;25606;42.686;23.136;2022-11-11T04:54:57;22.53;;;16.37;;
8281;SDS011;25606;42.686;23.136;2022-11-11T04:57:51;21.77;;;16.23;;
8281;SDS011;25606;42.686;23.136;2022-11-11T05:00:18;20.97;;;16.03;;
8281;SDS011;25606;42.686;23.136;2022-11-11T05:02:46;20.63;;;15.37;;
8281;SDS011;25606;42.686;23.136;2022-11-11T05:05:31;23.20;;;16.90;;
8281;SDS011;25606;42.686;23.136;2022-11-11T05:08:20;22.27;;;15.67;;
8281;SDS011;25606;42.686;23.136;2022-11-11T05:11:05;21.97;;;16.80;;
8281;SDS011;25606;42.686;23.136;2022-11-11T05:13:32;23.53;;;17.03;;
8281;SDS011;25606;42.686;23.136;2022-11-11T05:16:19;21.23;;;16.43;;
8281;SDS011;25606;42.686;23.136;2022-11-11T05:19:05;22.27;;;16.67;;
8281;SDS011;25606;42.686;23.136;2022-11-11T05:21:50;25.03;;;17.57;;
8281;SDS011;25606;42.686;23.136;2022-11-11T05:24:20;23.60;;;17.47;;
8281;SDS011;25606;42.686;23.136;2022-11-11T05:27:05;20.83;;;16.20;;
8281;SDS011;25606;42.686;23.136;2022-11-11T05:29:33;21.80;;;15.80;;
8281;SDS011;25606;42.686;23.136;2022-11-11T05:32:00;21.70;;;15.93;;
8281;SDS011;25606;42.686;23.136;2022-11-11T05:34:27;21.93;;;16.60;;
8281;SDS011;25606;42.686;23.136;2022-11-11T05:36:54;22.33;;;16.37;;
8281;SDS011;25606;42.686;23.136;2022-11-11T05:39:23;23.73;;;17.23;;
8281;SDS011;25606;42.686;23.136;2022-11-11T05:41:50;23.40;;;16.33;;
8281;SDS011;25606;42.686;23.136;2022-11-11T05:44:18;21.30;;;16.67;;
8281;SDS011;25606;42.686;23.136;2022-11-11T05:46:45;22.73;;;16.17;;
8281;SDS011;25606;42.686;23.136;2022-11-11T05:49:12;24.67;;;17.40;;
8281;SDS011;25606;42.686;23.136;2022-11-11T05:51:43;19.83;;;15.43;;
8281;SDS011;25606;42.686;23.136;2022-11-11T05:54:10;19.30;;;14.90;;
8281;SDS011;25606;42.686;23.136;2022-11-11T05:56:39;19.13;;;15.47;;
8281;SDS011;25606;42.686;23.136;2022-11-11T05:59:06;20.93;;;14.97;;
8281;SDS011;25606;42.686;23.136;2022-11-11T06:01:34;17.27;;;14.33;;
8281;SDS011;25606;42.686;23.136;2022-11-11T06:04:01;19.00;;;14.63;;
8281;SDS011;25606;42.686;23.136;2022-11-11T06:06:29;18.20;;;14.17;;
8281;SDS011;25606;42.686;23.136;2022-11-11T06:08:56;19.43;;;13.57;;
8281;SDS011;25606;42.686;23.136;2022-11-11T06:11:23;17.67;;;13.10;;
8281;SDS011;25606;42.686;23.136;2022-11-11T06:13:53;17.10;;;13.20;;
8281;SDS011;25606;42.686;23.136;2022-11-11T06:16:21;19.20;;;13.80;;
8281;SDS011;25606;42.686;23.136;2022-11-11T06:18:48;16.43;;;12.73;;
8281;SDS011;25606;42.686;23.136;2022-11-11T06:21:16;16.63;;;13.33;;
8281;SDS011;25606;42.686;23.136;2022-11-11T06:23:43;17.37;;;13.00;;
8281;SDS011;25606;42.686;23.136;2022-11-11T06:26:11;18.63;;;13.57;;
8281;SDS011;25606;42.686;23.136;2022-11-11T06:28:37;15.27;;;11.60;;
8281;SDS011;25606;42.686;23.136;2022-11-11T06:31:06;17.43;;;13.10;;
8281;SDS011;25606;42.686;23.136;2022-11-11T06:33:33;15.70;;;11.70;;
8281;SDS011;25606;42.686;23.136;2022-11-11T06:36:01;15.97;;;12.27;;
8281;SDS011;25606;42.686;23.136;2022-11-11T06:38:29;15.40;;;12.33;;
8281;SDS011;25606;42.686;23.136;2022-11-11T06:40:56;14.20;;;12.23;;
8281;SDS011;25606;42.686;23.136;2022-11-11T06:43:23;15.13;;;11.83;;
8281;SDS011;25606;42.686;23.136;2022-11-11T06:45:51;13.40;;;11.33;;
8281;SDS011;25606;42.686;23.136;2022-11-11T06:48:21;16.83;;;12.03;;
8281;SDS011;25606;42.686;23.136;2022-11-11T06:50:48;16.60;;;12.77;;
8281;SDS011;25606;42.686;23.136;2022-11-11T06:53:17;15.80;;;11.80;;
8281;SDS011;25606;42.686;23.136;2022-11-11T06:55:44;15.10;;;11.90;;
8281;SDS011;25606;42.686;23.136;2022-11-11T06:58:12;16.30;;;12.73;;
8281;SDS011;25606;42.686;23.136;2022-11-11T07:00:41;17.37;;;12.53;;
8281;SDS011;25606;42.686;23.136;2022-11-11T07:03:09;21.17;;;13.57;;
8281;SDS011;25606;42.686;23.136;2022-11-11T07:05:38;18.03;;;13.37;;
8281;SDS011;25606;42.686;23.136;2022-11-11T07:08:06;18.17;;;14.13;;
8281;SDS011;25606;42.686;23.136;2022-11-11T07:10:34;15.70;;;12.23;;
8281;SDS011;25606;42.686;23.136;2022-11-11T07:13:02;15.97;;;12.60;;
8281;SDS011;25606;42.686;23.136;2022-11-11T07:15:30;16.67;;;12.70;;
8281;SDS011;25606;42.686;23.136;2022-11-11T07:17:57;16.37;;;12.47;;
8281;SDS011;25606;42.686;23.136;2022-11-11T07:20:24;16.53;;;12.77;;
8281;SDS011;25606;42.686;23.136;2022-11-11T07:22:53;14.93;;;12.00;;
8281;SDS011;25606;42.686;23.136;2022-11-11T07:25:20;18.83;;;12.20;;
8281;SDS011;25606;42.686;23.136;2022-11-11T07:27:48;20.23;;;15.50;;
8281;SDS011;25606;42.686;23.136;2022-11-11T07:30:15;31.97;;;22.13;;
8281;SDS011;25606;42.686;23.136;2022-11-11T07:32:43;15.20;;;12.33;;
8281;SDS011;25606;42.686;23.136;2022-11-11T07:35:11;15.97;;;12.40;;
8281;SDS011;25606;42.686;23.136;2022-11-11T07:37:39;21.03;;;16.93;;
8281;SDS011;25606;42.686;23.136;2022-11-11T07:40:09;15.67;;;12.03;;
8281;SDS011;25606;42.686;23.136;2022-11-11T07:42:36;13.70;;;10.93;;
8281;SDS011;25606;42.686;23.136;2022-11-11T07:45:04;19.23;;;12.13;;
8281;SDS011;25606;42.686;23.136;2022-11-11T07:47:31;16.73;;;12.97;;
8281;SDS011;25606;42.686;23.136;2022-11-11T07:49:59;16.73;;;12.73;;
8281;SDS011;25606;42.686;23.136;2022-11-11T07:52:27;15.63;;;11.73;;
8281;SDS011;25606;42.686;23.136;2022-11-11T07:54:54;15.60;;;11.77;;
8281;SDS011;25606;42.686;23.136;2022-11-11T07:57:23;17.27;;;13.47;;
8281;SDS011;25606;42.686;23.136;2022-11-11T07:59:50;16.10;;;12.23;;
8281;SDS011;25606;42.686;23.136;2022-11-11T08:02:17;15.63;;;11.77;;
8281;SDS011;25606;42.686;23.136;2022-11-11T08:04:44;12.63;;;10.43;;
8281;SDS011;25606;42.686;23.136;2022-11-11T08:07:12;14.30;;;10.90;;
8281;SDS011;25606;42.686;23.136;2022-11-11T08:09:39;17.20;;;12.40;;
8281;SDS011;25606;42.686;23.136;2022-11-11T08:12:07;14.73;;;10.83;;
8281;SDS011;25606;42.686;23.136;2022-11-11T08:14:53;18.53;;;13.70;;
8281;SDS011;25606;42.686;23.136;2022-11-11T08:17:20;24.10;;;19.07;;
8281;SDS011;25606;42.686;23.136;2022-11-11T08:19:47;31.57;;;22.47;;
8281;SDS011;25606;42.686;23.136;2022-11-11T08:22:15;15.37;;;11.00;;
8281;SDS011;25606;42.686;23.136;2022-11-11T08:24:42;13.57;;;9.97;;
8281;SDS011;25606;42.686;23.136;2022-11-11T08:27:09;11.87;;;9.43;;
8281;SDS011;25606;42.686;23.136;2022-11-11T08:29:36;16.50;;;11.93;;
8281;SDS011;25606;42.686;23.136;2022-11-11T08:32:05;14.07;;;10.77;;
8281;SDS011;25606;42.686;23.136;2022-11-11T08:34:32;13.60;;;9.93;;
8281;SDS011;25606;42.686;23.136;2022-11-11T08:37:00;10.43;;;8.63;;
8281;SDS011;25606;42.686;23.136;2022-11-11T08:39:34;12.00;;;9.30;;
8281;SDS011;25606;42.686;23.136;2022-11-11T08:42:02;11.33;;;8.70;;
8281;SDS011;25606;42.686;23.136;2022-11-11T08:44:31;10.10;;;8.03;;
8281;SDS011;25606;42.686;23.136;2022-11-11T08:47:02;11.17;;;8.50;;
8281;SDS011;25606;42.686;23.136;2022-11-11T08:49:36;17.57;;;12.70;;
8281;SDS011;25606;42.686;23.136;2022-11-11T08:52:03;9.37;;;8.30;;
8281;SDS011;25606;42.686;23.136;2022-11-11T08:54:31;8.67;;;7.27;;
8281;SDS011;25606;42.686;23.136;2022-11-11T08:56:59;10.63;;;7.53;;
8281;SDS011;25606;42.686;23.136;2022-11-11T08:59:26;8.87;;;7.23;;
8281;SDS011;25606;42.686;23.136;2022-11-11T09:01:56;8.60;;;7.23;;
8281;SDS011;25606;42.686;23.136;2022-11-11T09:04:24;9.90;;;7.17;;
8281;SDS011;25606;42.686;23.136;2022-11-11T09:06:52;7.30;;;6.37;;
8281;SDS011;25606;42.686;23.136;2022-11-11T09:09:20;7.70;;;6.63;;
8281;SDS011;25606;42.686;23.136;2022-11-11T09:11:47;10.23;;;7.60;;
8281;SDS011;25606;42.686;23.136;2022-11-11T09:14:15;7.20;;;6.50;;
8281;SDS011;25606;42.686;23.136;2022-11-11T09:16:58;11.43;;;9.73;;
8281;SDS011;25606;42.686;23.136;2022-11-11T09:19:25;7.13;;;6.43;;
8281;SDS011;25606;42.686;23.136;2022-11-11T09:21:54;7.40;;;6.63;;
8281;SDS011;25606;42.686;23.136;2022-11-11T09:24:23;7.10;;;6.37;;
8281;SDS011;25606;42.686;23.136;2022-11-11T09:26:56;10.33;;;6.87;;
8281;SDS011;25606;42.686;23.136;2022-11-11T09:29:24;7.07;;;6.23;;
8281;SDS011;25606;42.686;23.136;2022-11-11T09:31:53;8.07;;;6.67;;
8281;SDS011;25606;42.686;23.136;2022-11-11T09:34:20;8.20;;;7.00;;
8281;SDS011;25606;42.686;23.136;2022-11-11T09:36:47;8.77;;;7.37;;
8281;SDS011;25606;42.686;23.136;2022-11-11T09:39:27;8.63;;;7.20;;
8281;SDS011;25606;42.686;23.136;2022-11-11T09:42:05;8.50;;;7.13;;
8281;SDS011;25606;42.686;23.136;2022-11-11T09:44:54;10.00;;;7.73;;
8281;SDS011;25606;42.686;23.136;2022-11-11T09:47:25;8.43;;;7.57;;
8281;SDS011;25606;42.686;23.136;2022-11-11T09:49:57;9.63;;;7.53;;
8281;SDS011;25606;42.686;23.136;2022-11-11T09:52:27;8.67;;;7.23;;
8281;SDS011;25606;42.686;23.136;2022-11-11T09:54:57;8.70;;;7.80;;
8281;SDS011;25606;42.686;23.136;2022-11-11T09:57:27;7.93;;;7.10;;
8281;SDS011;25606;42.686;23.136;2022-11-11T10:00:02;9.13;;;7.60;;
8281;SDS011;25606;42.686;23.136;2022-11-11T10:02:34;7.83;;;7.00;;
8281;SDS011;25606;42.686;23.136;2022-11-11T10:05:04;7.93;;;7.20;;
8281;SDS011;25606;42.686;23.136;2022-11-11T10:07:35;7.60;;;6.90;;
8281;SDS011;25606;42.686;23.136;2022-11-11T10:10:07;7.93;;;7.13;;
8281;SDS011;25606;42.686;23.136;2022-11-11T10:12:38;8.10;;;6.43;;
8281;SDS011;25606;42.686;23.136;2022-11-11T10:15:10;7.97;;;6.33;;
8281;SDS011;25606;42.686;23.136;2022-11-11T10:17:41;7.30;;;6.40;;
8281;SDS011;25606;42.686;23.136;2022-11-11T10:20:15;6.93;;;6.27;;
8281;SDS011;25606;42.686;23.136;2022-11-11T10:22:47;6.90;;;6.20;;
8281;SDS011;25606;42.686;23.136;2022-11-11T10:25:21;7.40;;;5.97;;
8281;SDS011;25606;42.686;23.136;2022-11-11T10:27:51;6.07;;;5.43;;
8281;SDS011;25606;42.686;23.136;2022-11-11T10:30:21;8.17;;;6.67;;
8281;SDS011;25606;42.686;23.136;2022-11-11T10:32:53;7.03;;;6.20;;
8281;SDS011;25606;42.686;23.136;2022-11-11T10:35:22;6.60;;;5.90;;
8281;SDS011;25606;42.686;23.136;2022-11-11T10:37:51;6.37;;;5.47;;
8281;SDS011;25606;42.686;23.136;2022-11-11T10:40:26;6.93;;;6.20;;
8281;SDS011;25606;42.686;23.136;2022-11-11T10:42:58;6.53;;;5.83;;
8281;SDS011;25606;42.686;23.136;2022-11-11T10:45:27;6.03;;;5.37;;
8281;SDS011;25606;42.686;23.136;2022-11-11T10:47:57;7.33;;;5.47;;
8281;SDS011;25606;42.686;23.136;2022-11-11T10:50:28;5.40;;;4.53;;
8281;SDS011;25606;42.686;23.136;2022-11-11T10:52:58;6.20;;;5.40;;
8281;SDS011;25606;42.686;23.136;2022-11-11T10:55:28;5.87;;;5.30;;
8281;SDS011;25606;42.686;23.136;2022-11-11T10:57:58;5.40;;;4.90;;
8281;SDS011;25606;42.686;23.136;2022-11-11T11:00:26;5.43;;;4.80;;
8281;SDS011;25606;42.686;23.136;2022-11-11T11:02:56;5.13;;;4.53;;
8281;SDS011;25606;42.686;23.136;2022-11-11T11:05:26;5.23;;;4.47;;
8281;SDS011;25606;42.686;23.136;2022-11-11T11:08:01;5.37;;;4.17;;
8281;SDS011;25606;42.686;23.136;2022-11-11T11:10:34;4.77;;;4.37;;
8281;SDS011;25606;42.686;23.136;2022-11-11T11:13:05;4.77;;;4.27;;
8281;SDS011;25606;42.686;23.136;2022-11-11T11:15:35;4.60;;;4.10;;
8281;SDS011;25606;42.686;23.136;2022-11-11T11:18:05;4.57;;;3.90;;
8281;SDS011;25606;42.686;23.136;2022-11-11T11:20:34;4.80;;;4.30;;
8281;SDS011;25606;42.686;23.136;2022-11-11T11:23:06;4.30;;;3.90;;
8281;SDS011;25606;42.686;23.136;2022-11-11T11:25:35;4.80;;;4.30;;
8281;SDS011;25606;42.686;23.136;2022-11-11T11:28:04;4.97;;;4.40;;
8281;SDS011;25606;42.686;23.136;2022-11-11T11:30:32;4.70;;;4.00;;
8281;SDS011;25606;42.686;23.136;2022-11-11T11:33:05;4.57;;;4.17;;
8281;SDS011;25606;42.686;23.136;2022-11-11T11:35:34;4.40;;;4.00;;
8281;SDS011;25606;42.686;23.136;2022-11-11T11:38:02;3.73;;;3.43;;
8281;SDS011;25606;42.686;23.136;2022-11-11T11:40:44;4.00;;;3.60;;
8281;SDS011;25606;42.686;23.136;2022-11-11T11:43:25;3.90;;;3.60;;
8281;SDS011;25606;42.686;23.136;2022-11-11T11:45:54;4.07;;;3.60;;
8281;SDS011;25606;42.686;23.136;2022-11-11T11:48:26;3.43;;;3.13;;
8281;SDS011;25606;42.686;23.136;2022-11-11T11:50:57;4.57;;;3.27;;
8281;SDS011;25606;42.686;23.136;2022-11-11T11:53:44;4.23;;;3.57;;
8281;SDS011;25606;42.686;23.136;2022-11-11T11:56:23;3.67;;;3.37;;
8281;SDS011;25606;42.686;23.136;2022-11-11T11:58:54;3.97;;;3.67;;
8281;SDS011;25606;42.686;23.136;2022-11-11T12:01:23;3.60;;;3.27;;
8281;SDS011;25606;42.686;23.136;2022-11-11T12:04:07;3.80;;;3.50;;
8281;SDS011;25606;42.686;23.136;2022-11-11T12:06:41;4.00;;;3.60;;
8281;SDS011;25606;42.686;23.136;2022-11-11T12:09:15;4.23;;;3.67;;
8281;SDS011;25606;42.686;23.136;2022-11-11T12:11:47;3.73;;;3.43;;
8281;SDS011;25606;42.686;23.136;2022-11-11T12:14:26;4.10;;;3.70;;
8281;SDS011;25606;42.686;23.136;2022-11-11T12:16:57;4.37;;;3.73;;
8281;SDS011;25606;42.686;23.136;2022-11-11T12:19:32;4.27;;;3.87;;
8281;SDS011;25606;42.686;23.136;2022-11-11T12:22:04;4.07;;;3.67;;
8281;SDS011;25606;42.686;23.136;2022-11-11T12:24:37;4.63;;;4.00;;
8281;SDS011;25606;42.686;23.136;2022-11-11T12:27:13;4.30;;;3.83;;
8281;SDS011;25606;42.686;23.136;2022-11-11T12:29:47;5.20;;;4.20;;
8281;SDS011;25606;42.686;23.136;2022-11-11T12:32:26;4.23;;;3.77;;
8281;SDS011;25606;42.686;23.136;2022-11-11T12:35:02;5.53;;;4.33;;
8281;SDS011;25606;42.686;23.136;2022-11-11T12:37:34;5.00;;;4.50;;
8281;SDS011;25606;42.686;23.136;2022-11-11T12:40:11;4.40;;;3.70;;
8281;SDS011;25606;42.686;23.136;2022-11-11T12:42:49;4.37;;;3.90;;
8281;SDS011;25606;42.686;23.136;2022-11-11T12:45:20;5.40;;;4.40;;
8281;SDS011;25606;42.686;23.136;2022-11-11T12:47:52;4.27;;;3.87;;
8281;SDS011;25606;42.686;23.136;2022-11-11T12:50:25;6.70;;;4.40;;
8281;SDS011;25606;42.686;23.136;2022-11-11T12:52:59;4.63;;;4.20;;
8281;SDS011;25606;42.686;23.136;2022-11-11T12:55:29;5.37;;;4.23;;
8281;SDS011;25606;42.686;23.136;2022-11-11T12:58:05;4.70;;;4.20;;
8281;SDS011;25606;42.686;23.136;2022-11-11T13:00:35;4.50;;;3.97;;
8281;SDS011;25606;42.686;23.136;2022-11-11T13:03:07;4.73;;;4.10;;
8281;SDS011;25606;42.686;23.136;2022-11-11T13:05:40;3.73;;;3.43;;
8281;SDS011;25606;42.686;23.136;2022-11-11T13:08:32;4.50;;;3.70;;
8281;SDS011;25606;42.686;23.136;2022-11-11T13:11:06;5.40;;;3.53;;
8281;SDS011;25606;42.686;23.136;2022-11-11T13:13:46;4.27;;;3.80;;
8281;SDS011;25606;42.686;23.136;2022-11-11T13:16:15;4.67;;;4.20;;
8281;SDS011;25606;42.686;23.136;2022-11-11T13:18:44;5.30;;;4.10;;
8281;SDS011;25606;42.686;23.136;2022-11-11T13:21:14;4.93;;;3.70;;
8281;SDS011;25606;42.686;23.136;2022-11-11T13:23:42;3.97;;;3.57;;
8281;SDS011;25606;42.686;23.136;2022-11-11T13:26:14;4.63;;;4.13;;
8281;SDS011;25606;42.686;23.136;2022-11-11T13:28:46;5.13;;;4.37;;
8281;SDS011;25606;42.686;23.136;2022-11-11T13:31:17;4.67;;;3.90;;
8281;SDS011;25606;42.686;23.136;2022-11-11T13:33:50;5.63;;;4.87;;
8281;SDS011;25606;42.686;23.136;2022-11-11T13:36:19;5.13;;;4.37;;
8281;SDS011;25606;42.686;23.136;2022-11-11T13:38:51;5.20;;;4.30;;
8281;SDS011;25606;42.686;23.136;2022-11-11T13:41:21;8.37;;;4.40;;
8281;SDS011;25606;42.686;23.136;2022-11-11T13:43:53;4.53;;;3.90;;
8281;SDS011;25606;42.686;23.136;2022-11-11T13:46:30;4.90;;;4.20;;
8281;SDS011;25606;42.686;23.136;2022-11-11T13:48:58;5.37;;;4.20;;
8281;SDS011;25606;42.686;23.136;2022-11-11T13:51:29;109.07;;;47.13;;
8281;SDS011;25606;42.686;23.136;2022-11-11T13:53:57;5.70;;;4.30;;
8281;SDS011;25606;42.686;23.136;2022-11-11T13:56:27;6.90;;;4.90;;
8281;SDS011;25606;42.686;23.136;2022-11-11T13:58:57;5.73;;;4.40;;
8281;SDS011;25606;42.686;23.136;2022-11-11T14:01:31;6.20;;;4.53;;
8281;SDS011;25606;42.686;23.136;2022-11-11T14:04:01;5.30;;;4.53;;
8281;SDS011;25606;42.686;23.136;2022-11-11T14:06:51;6.20;;;4.37;;
8281;SDS011;25606;42.686;23.136;2022-11-11T14:12:19;6.57;;;4.60;;
8281;SDS011;25606;42.686;23.136;2022-11-11T14:14:55;7.17;;;5.23;;
8281;SDS011;25606;42.686;23.136;2022-11-11T14:17:22;6.60;;;5.60;;
8281;SDS011;25606;42.686;23.136;2022-11-11T14:19:50;5.93;;;5.33;;
8281;SDS011;25606;42.686;23.136;2022-11-11T14:22:27;6.73;;;5.50;;
8281;SDS011;25606;42.686;23.136;2022-11-11T14:24:54;8.03;;;5.90;;
8281;SDS011;25606;42.686;23.136;2022-11-11T14:27:23;9.67;;;6.00;;
8281;SDS011;25606;42.686;23.136;2022-11-11T14:29:52;6.90;;;5.90;;
8281;SDS011;25606;42.686;23.136;2022-11-11T14:38:11;8.03;;;6.00;;
8281;SDS011;25606;42.686;23.136;2022-11-11T14:40:53;8.40;;;6.20;;
8281;SDS011;25606;42.686;23.136;2022-11-11T14:43:34;7.47;;;5.63;;
8281;SDS011;25606;42.686;23.136;2022-11-11T14:46:03;8.13;;;5.77;;
8281;SDS011;25606;42.686;23.136;2022-11-11T14:51:39;7.87;;;5.83;;
8281;SDS011;25606;42.686;23.136;2022-11-11T14:54:16;6.97;;;6.00;;
8281;SDS011;25606;42.686;23.136;2022-11-11T14:56:51;7.83;;;6.30;;
8281;SDS011;25606;42.686;23.136;2022-11-11T14:59:20;9.33;;;7.27;;
8281;SDS011;25606;42.686;23.136;2022-11-11T15:01:52;8.77;;;7.07;;
8281;SDS011;25606;42.686;23.136;2022-11-11T15:04:20;8.60;;;6.70;;